sensor_id;sensor_type;location;lat;lon;timestamp;P1;durP1;ratioP1;P2;durP2;ratioP2
5959;SDS011;3006;50.956;7.002;2023-03-26T00:02:02;20.33;;;3.67;;
5959;SDS011;3006;50.956;7.002;2023-03-26T00:04:31;21.67;;;4.30;;
5959;SDS011;3006;50.956;7.002;2023-03-26T00:07:00;16.83;;;3.90;;
5959;SDS011;3006;50.956;7.002;2023-03-26T00:09:28;19.37;;;4.23;;
5959;SDS011;3006;50.956;7.002;2023-03-26T00:11:56;18.90;;;3.80;;
5959;SDS011;3006;50.956;7.002;2023-03-26T00:14:24;20.73;;;4.00;;
5959;SDS011;3006;50.956;7.002;2023-03-26T00:16:54;30.90;;;5.00;;
5959;SDS011;3006;50.956;7.002;2023-03-26T00:19:22;24.93;;;4.10;;
5959;SDS011;3006;50.956;7.002;2023-03-26T00:21:51;20.60;;;4.40;;
5959;SDS011;3006;50.956;7.002;2023-03-26T00:24:19;17.97;;;4.57;;
5959;SDS011;3006;50.956;7.002;2023-03-26T00:26:54;17.50;;;4.07;;
5959;SDS011;3006;50.956;7.002;2023-03-26T00:29:22;16.40;;;4.00;;
5959;SDS011;3006;50.956;7.002;2023-03-26T00:31:53;16.63;;;3.20;;
5959;SDS011;3006;50.956;7.002;2023-03-26T00:34:21;20.97;;;3.70;;
5959;SDS011;3006;50.956;7.002;2023-03-26T00:36:51;19.27;;;4.53;;
5959;SDS011;3006;50.956;7.002;2023-03-26T00:39:20;31.27;;;4.10;;
5959;SDS011;3006;50.956;7.002;2023-03-26T00:41:49;20.70;;;4.17;;
5959;SDS011;3006;50.956;7.002;2023-03-26T00:44:20;24.93;;;3.90;;
5959;SDS011;3006;50.956;7.002;2023-03-26T00:46:48;18.83;;;3.73;;
5959;SDS011;3006;50.956;7.002;2023-03-26T00:49:16;20.77;;;3.77;;
5959;SDS011;3006;50.956;7.002;2023-03-26T00:51:44;21.67;;;4.00;;
5959;SDS011;3006;50.956;7.002;2023-03-26T00:54:13;31.83;;;4.23;;
5959;SDS011;3006;50.956;7.002;2023-03-26T00:56:41;21.87;;;3.83;;
5959;SDS011;3006;50.956;7.002;2023-03-26T00:59:09;26.40;;;4.83;;
5959;SDS011;3006;50.956;7.002;2023-03-26T01:01:37;24.30;;;4.07;;
5959;SDS011;3006;50.956;7.002;2023-03-26T01:04:20;15.47;;;4.03;;
5959;SDS011;3006;50.956;7.002;2023-03-26T01:06:56;20.63;;;3.57;;
5959;SDS011;3006;50.956;7.002;2023-03-26T01:09:30;22.30;;;4.60;;
5959;SDS011;3006;50.956;7.002;2023-03-26T01:12:01;22.80;;;4.90;;
5959;SDS011;3006;50.956;7.002;2023-03-26T01:14:32;17.17;;;3.30;;
5959;SDS011;3006;50.956;7.002;2023-03-26T01:17:00;21.53;;;3.70;;
5959;SDS011;3006;50.956;7.002;2023-03-26T01:19:32;15.37;;;4.10;;
5959;SDS011;3006;50.956;7.002;2023-03-26T01:22:06;11.37;;;2.90;;
5959;SDS011;3006;50.956;7.002;2023-03-26T01:24:38;21.87;;;3.70;;
5959;SDS011;3006;50.956;7.002;2023-03-26T01:27:11;22.73;;;5.37;;
5959;SDS011;3006;50.956;7.002;2023-03-26T01:29:47;16.40;;;3.87;;
5959;SDS011;3006;50.956;7.002;2023-03-26T01:35:13;14.43;;;3.60;;
5959;SDS011;3006;50.956;7.002;2023-03-26T01:37:52;16.57;;;3.90;;
5959;SDS011;3006;50.956;7.002;2023-03-26T01:40:28;26.13;;;4.20;;
5959;SDS011;3006;50.956;7.002;2023-03-26T01:43:15;11.87;;;3.70;;
5959;SDS011;3006;50.956;7.002;2023-03-26T01:45:48;12.33;;;3.47;;
5959;SDS011;3006;50.956;7.002;2023-03-26T01:48:18;18.33;;;3.70;;
5959;SDS011;3006;50.956;7.002;2023-03-26T01:50:46;14.30;;;3.60;;
5959;SDS011;3006;50.956;7.002;2023-03-26T01:53:18;15.27;;;4.00;;
5959;SDS011;3006;50.956;7.002;2023-03-26T01:55:50;17.73;;;4.70;;
5959;SDS011;3006;50.956;7.002;2023-03-26T01:58:29;20.70;;;4.00;;
5959;SDS011;3006;50.956;7.002;2023-03-26T02:01:05;24.30;;;5.00;;
5959;SDS011;3006;50.956;7.002;2023-03-26T02:03:45;16.23;;;4.10;;
5959;SDS011;3006;50.956;7.002;2023-03-26T02:06:18;17.43;;;4.67;;
5959;SDS011;3006;50.956;7.002;2023-03-26T02:08:56;18.80;;;3.50;;
5959;SDS011;3006;50.956;7.002;2023-03-26T02:11:31;14.43;;;4.20;;
5959;SDS011;3006;50.956;7.002;2023-03-26T02:14:02;27.97;;;4.40;;
5959;SDS011;3006;50.956;7.002;2023-03-26T02:16:31;16.87;;;4.47;;
5959;SDS011;3006;50.956;7.002;2023-03-26T02:18:59;18.83;;;4.10;;
5959;SDS011;3006;50.956;7.002;2023-03-26T02:21:29;18.00;;;3.77;;
5959;SDS011;3006;50.956;7.002;2023-03-26T02:23:59;17.77;;;4.77;;
5959;SDS011;3006;50.956;7.002;2023-03-26T02:26:35;22.00;;;4.13;;
5959;SDS011;3006;50.956;7.002;2023-03-26T02:29:07;16.50;;;3.87;;
5959;SDS011;3006;50.956;7.002;2023-03-26T02:31:37;15.67;;;3.90;;
5959;SDS011;3006;50.956;7.002;2023-03-26T02:34:06;14.40;;;4.17;;
5959;SDS011;3006;50.956;7.002;2023-03-26T02:36:36;14.97;;;4.00;;
5959;SDS011;3006;50.956;7.002;2023-03-26T02:39:05;15.87;;;3.70;;
5959;SDS011;3006;50.956;7.002;2023-03-26T02:41:37;18.33;;;4.27;;
5959;SDS011;3006;50.956;7.002;2023-03-26T02:44:10;13.60;;;4.10;;
5959;SDS011;3006;50.956;7.002;2023-03-26T02:47:04;18.97;;;3.80;;
5959;SDS011;3006;50.956;7.002;2023-03-26T02:49:50;17.33;;;4.13;;
5959;SDS011;3006;50.956;7.002;2023-03-26T02:52:28;12.70;;;3.90;;
5959;SDS011;3006;50.956;7.002;2023-03-26T02:54:57;20.87;;;4.30;;
5959;SDS011;3006;50.956;7.002;2023-03-26T02:57:28;15.63;;;4.43;;
5959;SDS011;3006;50.956;7.002;2023-03-26T02:59:56;18.13;;;4.70;;
5959;SDS011;3006;50.956;7.002;2023-03-26T03:02:36;14.80;;;4.50;;
5959;SDS011;3006;50.956;7.002;2023-03-26T03:05:23;19.70;;;4.87;;
5959;SDS011;3006;50.956;7.002;2023-03-26T03:08:15;18.17;;;4.37;;
5959;SDS011;3006;50.956;7.002;2023-03-26T03:10:58;17.90;;;6.00;;
5959;SDS011;3006;50.956;7.002;2023-03-26T03:13:38;19.43;;;4.67;;
5959;SDS011;3006;50.956;7.002;2023-03-26T03:16:06;14.70;;;4.90;;
5959;SDS011;3006;50.956;7.002;2023-03-26T03:18:35;18.73;;;3.93;;
5959;SDS011;3006;50.956;7.002;2023-03-26T03:21:03;19.37;;;4.97;;
5959;SDS011;3006;50.956;7.002;2023-03-26T03:23:32;13.13;;;4.30;;
5959;SDS011;3006;50.956;7.002;2023-03-26T03:26:10;11.67;;;4.80;;
5959;SDS011;3006;50.956;7.002;2023-03-26T03:28:45;17.70;;;4.23;;
5959;SDS011;3006;50.956;7.002;2023-03-26T03:31:14;17.80;;;4.53;;
5959;SDS011;3006;50.956;7.002;2023-03-26T03:33:43;14.77;;;4.20;;
5959;SDS011;3006;50.956;7.002;2023-03-26T03:36:14;19.00;;;4.13;;
5959;SDS011;3006;50.956;7.002;2023-03-26T03:38:49;13.93;;;4.03;;
5959;SDS011;3006;50.956;7.002;2023-03-26T03:41:19;11.37;;;3.20;;
5959;SDS011;3006;50.956;7.002;2023-03-26T03:43:49;15.20;;;3.90;;
5959;SDS011;3006;50.956;7.002;2023-03-26T03:46:24;20.33;;;4.73;;
5959;SDS011;3006;50.956;7.002;2023-03-26T03:48:52;19.87;;;4.30;;
5959;SDS011;3006;50.956;7.002;2023-03-26T03:51:29;11.67;;;3.37;;
5959;SDS011;3006;50.956;7.002;2023-03-26T03:53:59;14.53;;;4.03;;
5959;SDS011;3006;50.956;7.002;2023-03-26T03:56:51;16.97;;;4.60;;
5959;SDS011;3006;50.956;7.002;2023-03-26T03:59:49;14.70;;;3.30;;
5959;SDS011;3006;50.956;7.002;2023-03-26T04:02:18;13.90;;;3.30;;
5959;SDS011;3006;50.956;7.002;2023-03-26T04:04:56;16.00;;;3.60;;
5959;SDS011;3006;50.956;7.002;2023-03-26T04:07:26;15.53;;;4.17;;
5959;SDS011;3006;50.956;7.002;2023-03-26T04:10:03;12.40;;;3.67;;
5959;SDS011;3006;50.956;7.002;2023-03-26T04:13:07;19.70;;;4.30;;
5959;SDS011;3006;50.956;7.002;2023-03-26T04:15:55;11.77;;;3.20;;
5959;SDS011;3006;50.956;7.002;2023-03-26T04:18:23;9.93;;;3.03;;
5959;SDS011;3006;50.956;7.002;2023-03-26T04:20:54;14.00;;;4.10;;
5959;SDS011;3006;50.956;7.002;2023-03-26T04:23:29;9.90;;;2.90;;
5959;SDS011;3006;50.956;7.002;2023-03-26T04:26:08;18.33;;;3.37;;
5959;SDS011;3006;50.956;7.002;2023-03-26T04:29:09;10.93;;;3.00;;
5959;SDS011;3006;50.956;7.002;2023-03-26T04:31:45;15.37;;;3.33;;
5959;SDS011;3006;50.956;7.002;2023-03-26T04:34:18;14.87;;;4.20;;
5959;SDS011;3006;50.956;7.002;2023-03-26T04:37:07;10.93;;;3.43;;
5959;SDS011;3006;50.956;7.002;2023-03-26T04:39:45;14.90;;;3.50;;
5959;SDS011;3006;50.956;7.002;2023-03-26T04:42:31;13.20;;;4.00;;
5959;SDS011;3006;50.956;7.002;2023-03-26T04:45:13;18.27;;;4.70;;
5959;SDS011;3006;50.956;7.002;2023-03-26T04:47:47;13.63;;;3.43;;
5959;SDS011;3006;50.956;7.002;2023-03-26T04:50:15;12.40;;;3.57;;
5959;SDS011;3006;50.956;7.002;2023-03-26T04:52:43;18.10;;;3.77;;
5959;SDS011;3006;50.956;7.002;2023-03-26T04:55:16;12.40;;;3.70;;
5959;SDS011;3006;50.956;7.002;2023-03-26T04:58:00;13.50;;;3.43;;
5959;SDS011;3006;50.956;7.002;2023-03-26T05:00:49;11.33;;;3.40;;
5959;SDS011;3006;50.956;7.002;2023-03-26T05:03:19;11.50;;;2.90;;
5959;SDS011;3006;50.956;7.002;2023-03-26T05:05:48;12.13;;;2.87;;
5959;SDS011;3006;50.956;7.002;2023-03-26T05:08:17;9.00;;;3.50;;
5959;SDS011;3006;50.956;7.002;2023-03-26T05:10:45;12.17;;;2.63;;
5959;SDS011;3006;50.956;7.002;2023-03-26T05:13:20;18.47;;;3.37;;
5959;SDS011;3006;50.956;7.002;2023-03-26T05:15:52;19.60;;;3.83;;
5959;SDS011;3006;50.956;7.002;2023-03-26T05:18:54;10.53;;;3.40;;
5959;SDS011;3006;50.956;7.002;2023-03-26T05:21:26;14.27;;;4.67;;
5959;SDS011;3006;50.956;7.002;2023-03-26T05:23:54;14.00;;;3.40;;
5959;SDS011;3006;50.956;7.002;2023-03-26T05:26:22;15.50;;;3.50;;
5959;SDS011;3006;50.956;7.002;2023-03-26T05:28:51;14.90;;;3.43;;
5959;SDS011;3006;50.956;7.002;2023-03-26T05:31:25;8.83;;;3.50;;
5959;SDS011;3006;50.956;7.002;2023-03-26T05:33:57;15.37;;;3.67;;
5959;SDS011;3006;50.956;7.002;2023-03-26T05:36:26;12.20;;;3.30;;
5959;SDS011;3006;50.956;7.002;2023-03-26T05:39:23;15.73;;;3.37;;
5959;SDS011;3006;50.956;7.002;2023-03-26T05:42:10;11.10;;;3.47;;
5959;SDS011;3006;50.956;7.002;2023-03-26T05:44:59;10.70;;;3.40;;
5959;SDS011;3006;50.956;7.002;2023-03-26T05:47:30;6.93;;;3.10;;
5959;SDS011;3006;50.956;7.002;2023-03-26T05:49:59;8.83;;;2.90;;
5959;SDS011;3006;50.956;7.002;2023-03-26T05:52:28;11.63;;;3.30;;
5959;SDS011;3006;50.956;7.002;2023-03-26T05:55:25;8.30;;;2.83;;
5959;SDS011;3006;50.956;7.002;2023-03-26T05:58:22;9.53;;;4.20;;
5959;SDS011;3006;50.956;7.002;2023-03-26T06:01:14;12.90;;;3.70;;
5959;SDS011;3006;50.956;7.002;2023-03-26T06:04:02;13.70;;;3.10;;
5959;SDS011;3006;50.956;7.002;2023-03-26T06:06:37;12.73;;;3.00;;
5959;SDS011;3006;50.956;7.002;2023-03-26T06:09:05;16.00;;;4.07;;
5959;SDS011;3006;50.956;7.002;2023-03-26T06:11:34;12.37;;;3.63;;
5959;SDS011;3006;50.956;7.002;2023-03-26T06:14:03;12.83;;;3.20;;
5959;SDS011;3006;50.956;7.002;2023-03-26T06:16:33;10.23;;;3.03;;
5959;SDS011;3006;50.956;7.002;2023-03-26T06:19:20;14.30;;;3.00;;
5959;SDS011;3006;50.956;7.002;2023-03-26T06:21:55;12.00;;;3.73;;
5959;SDS011;3006;50.956;7.002;2023-03-26T06:24:35;11.93;;;3.30;;
5959;SDS011;3006;50.956;7.002;2023-03-26T06:27:24;16.13;;;3.83;;
5959;SDS011;3006;50.956;7.002;2023-03-26T06:30:10;12.53;;;3.40;;
5959;SDS011;3006;50.956;7.002;2023-03-26T06:32:50;9.57;;;3.57;;
5959;SDS011;3006;50.956;7.002;2023-03-26T06:35:22;12.50;;;4.43;;
5959;SDS011;3006;50.956;7.002;2023-03-26T06:37:53;11.83;;;3.83;;
5959;SDS011;3006;50.956;7.002;2023-03-26T06:40:21;17.67;;;4.10;;
5959;SDS011;3006;50.956;7.002;2023-03-26T06:43:04;17.27;;;4.27;;
5959;SDS011;3006;50.956;7.002;2023-03-26T06:45:58;12.30;;;4.00;;
5959;SDS011;3006;50.956;7.002;2023-03-26T06:48:35;12.53;;;4.13;;
5959;SDS011;3006;50.956;7.002;2023-03-26T06:51:26;22.77;;;4.37;;
5959;SDS011;3006;50.956;7.002;2023-03-26T06:54:17;12.97;;;3.40;;
5959;SDS011;3006;50.956;7.002;2023-03-26T06:57:06;8.33;;;3.10;;
5959;SDS011;3006;50.956;7.002;2023-03-26T06:59:52;18.27;;;4.60;;
5959;SDS011;3006;50.956;7.002;2023-03-26T07:02:39;13.97;;;4.50;;
5959;SDS011;3006;50.956;7.002;2023-03-26T07:05:25;14.77;;;4.13;;
5959;SDS011;3006;50.956;7.002;2023-03-26T07:08:11;11.97;;;3.70;;
5959;SDS011;3006;50.956;7.002;2023-03-26T07:10:44;13.70;;;4.07;;
5959;SDS011;3006;50.956;7.002;2023-03-26T07:13:31;12.30;;;3.63;;
5959;SDS011;3006;50.956;7.002;2023-03-26T07:16:17;10.60;;;3.47;;
5959;SDS011;3006;50.956;7.002;2023-03-26T07:19:04;11.47;;;3.77;;
5959;SDS011;3006;50.956;7.002;2023-03-26T07:21:35;9.17;;;3.10;;
5959;SDS011;3006;50.956;7.002;2023-03-26T07:24:19;14.03;;;4.23;;
5959;SDS011;3006;50.956;7.002;2023-03-26T07:27:01;12.10;;;3.73;;
5959;SDS011;3006;50.956;7.002;2023-03-26T07:29:40;12.93;;;3.20;;
5959;SDS011;3006;50.956;7.002;2023-03-26T07:32:38;13.30;;;3.83;;
5959;SDS011;3006;50.956;7.002;2023-03-26T07:35:31;10.30;;;4.13;;
5959;SDS011;3006;50.956;7.002;2023-03-26T07:38:27;14.40;;;3.67;;
5959;SDS011;3006;50.956;7.002;2023-03-26T07:41:28;13.43;;;4.30;;
5959;SDS011;3006;50.956;7.002;2023-03-26T07:44:24;12.20;;;3.40;;
5959;SDS011;3006;50.956;7.002;2023-03-26T07:47:34;11.60;;;3.10;;
5959;SDS011;3006;50.956;7.002;2023-03-26T07:50:22;12.47;;;3.73;;
5959;SDS011;3006;50.956;7.002;2023-03-26T07:53:08;10.93;;;3.40;;
5959;SDS011;3006;50.956;7.002;2023-03-26T07:55:56;15.63;;;3.77;;
5959;SDS011;3006;50.956;7.002;2023-03-26T07:58:57;14.63;;;4.80;;
5959;SDS011;3006;50.956;7.002;2023-03-26T08:01:53;15.00;;;4.00;;
5959;SDS011;3006;50.956;7.002;2023-03-26T08:04:51;7.73;;;3.00;;
5959;SDS011;3006;50.956;7.002;2023-03-26T08:07:59;13.90;;;3.67;;
5959;SDS011;3006;50.956;7.002;2023-03-26T08:10:41;11.00;;;3.70;;
5959;SDS011;3006;50.956;7.002;2023-03-26T08:13:20;12.07;;;3.97;;
5959;SDS011;3006;50.956;7.002;2023-03-26T08:15:55;14.23;;;3.67;;
5959;SDS011;3006;50.956;7.002;2023-03-26T08:18:38;12.43;;;3.33;;
5959;SDS011;3006;50.956;7.002;2023-03-26T08:21:12;12.47;;;3.90;;
5959;SDS011;3006;50.956;7.002;2023-03-26T08:23:50;11.80;;;4.23;;
5959;SDS011;3006;50.956;7.002;2023-03-26T08:26:27;13.80;;;3.60;;
5959;SDS011;3006;50.956;7.002;2023-03-26T08:29:02;11.53;;;4.20;;
5959;SDS011;3006;50.956;7.002;2023-03-26T08:31:37;9.40;;;3.80;;
5959;SDS011;3006;50.956;7.002;2023-03-26T08:34:10;12.10;;;3.77;;
5959;SDS011;3006;50.956;7.002;2023-03-26T08:36:39;15.63;;;5.50;;
5959;SDS011;3006;50.956;7.002;2023-03-26T08:39:07;10.07;;;4.17;;
5959;SDS011;3006;50.956;7.002;2023-03-26T08:41:51;10.47;;;3.30;;
5959;SDS011;3006;50.956;7.002;2023-03-26T08:44:51;8.60;;;3.67;;
5959;SDS011;3006;50.956;7.002;2023-03-26T08:50:49;10.97;;;3.37;;
5959;SDS011;3006;50.956;7.002;2023-03-26T08:53:44;12.53;;;3.37;;
5959;SDS011;3006;50.956;7.002;2023-03-26T08:56:31;9.83;;;3.23;;
5959;SDS011;3006;50.956;7.002;2023-03-26T09:02:22;11.80;;;3.70;;
5959;SDS011;3006;50.956;7.002;2023-03-26T09:05:20;9.40;;;3.10;;
5959;SDS011;3006;50.956;7.002;2023-03-26T09:08:31;8.50;;;2.60;;
5959;SDS011;3006;50.956;7.002;2023-03-26T09:11:42;4.80;;;2.50;;
5959;SDS011;3006;50.956;7.002;2023-03-26T09:14:41;8.17;;;2.70;;
5959;SDS011;3006;50.956;7.002;2023-03-26T09:17:43;10.10;;;3.00;;
5959;SDS011;3006;50.956;7.002;2023-03-26T09:20:42;5.80;;;2.53;;
5959;SDS011;3006;50.956;7.002;2023-03-26T09:26:24;6.27;;;2.03;;
5959;SDS011;3006;50.956;7.002;2023-03-26T09:29:02;7.50;;;1.97;;
5959;SDS011;3006;50.956;7.002;2023-03-26T09:35:22;6.43;;;1.83;;
5959;SDS011;3006;50.956;7.002;2023-03-26T09:38:10;4.93;;;2.17;;
5959;SDS011;3006;50.956;7.002;2023-03-26T09:40:56;6.70;;;2.40;;
5959;SDS011;3006;50.956;7.002;2023-03-26T09:43:35;6.43;;;2.50;;
5959;SDS011;3006;50.956;7.002;2023-03-26T09:46:24;4.43;;;2.40;;
5959;SDS011;3006;50.956;7.002;2023-03-26T09:49:01;6.03;;;2.80;;
5959;SDS011;3006;50.956;7.002;2023-03-26T09:52:13;5.43;;;2.63;;
5959;SDS011;3006;50.956;7.002;2023-03-26T09:55:03;4.20;;;2.20;;
5959;SDS011;3006;50.956;7.002;2023-03-26T09:57:51;14.60;;;8.90;;
5959;SDS011;3006;50.956;7.002;2023-03-26T10:00:32;3.63;;;2.00;;
5959;SDS011;3006;50.956;7.002;2023-03-26T10:03:17;5.00;;;2.33;;
5959;SDS011;3006;50.956;7.002;2023-03-26T10:06:01;5.90;;;2.37;;
5959;SDS011;3006;50.956;7.002;2023-03-26T10:08:49;6.07;;;2.30;;
5959;SDS011;3006;50.956;7.002;2023-03-26T10:11:47;4.30;;;2.20;;
5959;SDS011;3006;50.956;7.002;2023-03-26T10:14:25;8.63;;;2.40;;
5959;SDS011;3006;50.956;7.002;2023-03-26T10:17:04;11.63;;;2.67;;
5959;SDS011;3006;50.956;7.002;2023-03-26T10:19:43;6.30;;;2.40;;
5959;SDS011;3006;50.956;7.002;2023-03-26T10:22:24;4.97;;;2.17;;
5959;SDS011;3006;50.956;7.002;2023-03-26T10:28:15;7.83;;;2.53;;
5959;SDS011;3006;50.956;7.002;2023-03-26T10:31:03;7.30;;;3.30;;
5959;SDS011;3006;50.956;7.002;2023-03-26T10:33:54;5.23;;;2.60;;
5959;SDS011;3006;50.956;7.002;2023-03-26T10:36:28;3.13;;;2.17;;
5959;SDS011;3006;50.956;7.002;2023-03-26T10:39:14;4.37;;;2.33;;
5959;SDS011;3006;50.956;7.002;2023-03-26T10:42:11;3.90;;;2.13;;
5959;SDS011;3006;50.956;7.002;2023-03-26T10:47:54;8.70;;;2.60;;
5959;SDS011;3006;50.956;7.002;2023-03-26T10:50:43;5.13;;;2.50;;
5959;SDS011;3006;50.956;7.002;2023-03-26T10:53:24;5.40;;;2.30;;
5959;SDS011;3006;50.956;7.002;2023-03-26T10:55:59;3.73;;;2.83;;
5959;SDS011;3006;50.956;7.002;2023-03-26T10:58:33;5.90;;;3.10;;
5959;SDS011;3006;50.956;7.002;2023-03-26T11:01:18;4.40;;;2.50;;
5959;SDS011;3006;50.956;7.002;2023-03-26T11:03:54;5.60;;;2.57;;
5959;SDS011;3006;50.956;7.002;2023-03-26T11:06:29;5.30;;;2.93;;
5959;SDS011;3006;50.956;7.002;2023-03-26T11:09:06;3.63;;;2.70;;
5959;SDS011;3006;50.956;7.002;2023-03-26T11:11:46;4.37;;;2.50;;
5959;SDS011;3006;50.956;7.002;2023-03-26T11:14:20;6.50;;;2.30;;
5959;SDS011;3006;50.956;7.002;2023-03-26T11:17:03;5.20;;;2.40;;
5959;SDS011;3006;50.956;7.002;2023-03-26T11:20:02;6.10;;;2.30;;
5959;SDS011;3006;50.956;7.002;2023-03-26T11:22:38;5.57;;;2.30;;
5959;SDS011;3006;50.956;7.002;2023-03-26T11:25:20;3.23;;;2.47;;
5959;SDS011;3006;50.956;7.002;2023-03-26T11:28:00;8.67;;;2.53;;
5959;SDS011;3006;50.956;7.002;2023-03-26T11:30:43;5.47;;;2.20;;
5959;SDS011;3006;50.956;7.002;2023-03-26T11:33:17;6.47;;;2.87;;
5959;SDS011;3006;50.956;7.002;2023-03-26T11:35:48;5.30;;;2.30;;
5959;SDS011;3006;50.956;7.002;2023-03-26T11:38:20;8.90;;;2.93;;
5959;SDS011;3006;50.956;7.002;2023-03-26T11:40:53;4.07;;;2.80;;
5959;SDS011;3006;50.956;7.002;2023-03-26T11:43:58;7.27;;;2.80;;
5959;SDS011;3006;50.956;7.002;2023-03-26T11:46:31;8.10;;;2.60;;
5959;SDS011;3006;50.956;7.002;2023-03-26T11:49:05;6.03;;;4.17;;
5959;SDS011;3006;50.956;7.002;2023-03-26T11:51:37;4.30;;;2.00;;
5959;SDS011;3006;50.956;7.002;2023-03-26T11:54:07;7.47;;;3.53;;
5959;SDS011;3006;50.956;7.002;2023-03-26T11:56:40;13.40;;;5.50;;
5959;SDS011;3006;50.956;7.002;2023-03-26T11:59:32;4.30;;;3.40;;
5959;SDS011;3006;50.956;7.002;2023-03-26T12:02:25;5.23;;;2.63;;
5959;SDS011;3006;50.956;7.002;2023-03-26T12:05:10;4.80;;;2.10;;
5959;SDS011;3006;50.956;7.002;2023-03-26T12:07:45;5.87;;;2.10;;
5959;SDS011;3006;50.956;7.002;2023-03-26T12:10:23;8.40;;;2.50;;
5959;SDS011;3006;50.956;7.002;2023-03-26T12:12:55;7.00;;;2.83;;
5959;SDS011;3006;50.956;7.002;2023-03-26T12:15:26;3.90;;;2.60;;
5959;SDS011;3006;50.956;7.002;2023-03-26T12:17:56;5.23;;;2.73;;
5959;SDS011;3006;50.956;7.002;2023-03-26T12:20:45;9.70;;;2.70;;
5959;SDS011;3006;50.956;7.002;2023-03-26T12:23:33;4.43;;;2.50;;
5959;SDS011;3006;50.956;7.002;2023-03-26T12:26:10;4.60;;;3.03;;
5959;SDS011;3006;50.956;7.002;2023-03-26T12:28:45;7.07;;;2.90;;
5959;SDS011;3006;50.956;7.002;2023-03-26T12:31:14;7.53;;;2.50;;
5959;SDS011;3006;50.956;7.002;2023-03-26T12:33:49;9.37;;;6.50;;
5959;SDS011;3006;50.956;7.002;2023-03-26T12:36:32;4.97;;;2.73;;
5959;SDS011;3006;50.956;7.002;2023-03-26T12:39:08;3.37;;;2.37;;
5959;SDS011;3006;50.956;7.002;2023-03-26T12:42:25;4.07;;;1.90;;
5959;SDS011;3006;50.956;7.002;2023-03-26T12:45:18;4.90;;;1.87;;
5959;SDS011;3006;50.956;7.002;2023-03-26T12:47:48;2.30;;;2.00;;
5959;SDS011;3006;50.956;7.002;2023-03-26T12:50:31;2.43;;;1.33;;
5959;SDS011;3006;50.956;7.002;2023-03-26T12:53:17;4.47;;;1.70;;
5959;SDS011;3006;50.956;7.002;2023-03-26T12:55:58;5.13;;;1.70;;
5959;SDS011;3006;50.956;7.002;2023-03-26T12:58:36;2.40;;;1.90;;
5959;SDS011;3006;50.956;7.002;2023-03-26T13:01:22;4.30;;;2.23;;
5959;SDS011;3006;50.956;7.002;2023-03-26T13:04:16;2.50;;;1.70;;
5959;SDS011;3006;50.956;7.002;2023-03-26T13:06:55;4.20;;;2.20;;
5959;SDS011;3006;50.956;7.002;2023-03-26T13:09:37;2.77;;;1.70;;
5959;SDS011;3006;50.956;7.002;2023-03-26T13:12:30;1.73;;;1.60;;
5959;SDS011;3006;50.956;7.002;2023-03-26T13:15:16;3.40;;;2.00;;
5959;SDS011;3006;50.956;7.002;2023-03-26T13:17:52;2.60;;;2.00;;
5959;SDS011;3006;50.956;7.002;2023-03-26T13:20:30;3.27;;;2.97;;
5959;SDS011;3006;50.956;7.002;2023-03-26T13:23:11;3.20;;;2.03;;
5959;SDS011;3006;50.956;7.002;2023-03-26T13:25:50;1.80;;;1.50;;
5959;SDS011;3006;50.956;7.002;2023-03-26T13:28:26;2.60;;;2.10;;
5959;SDS011;3006;50.956;7.002;2023-03-26T13:31:03;4.73;;;2.10;;
5959;SDS011;3006;50.956;7.002;2023-03-26T13:33:38;1.93;;;1.40;;
5959;SDS011;3006;50.956;7.002;2023-03-26T13:36:15;2.87;;;1.80;;
5959;SDS011;3006;50.956;7.002;2023-03-26T13:38:53;4.70;;;2.07;;
5959;SDS011;3006;50.956;7.002;2023-03-26T13:41:34;5.50;;;2.60;;
5959;SDS011;3006;50.956;7.002;2023-03-26T13:44:15;2.00;;;1.83;;
5959;SDS011;3006;50.956;7.002;2023-03-26T13:46:49;3.27;;;1.53;;
5959;SDS011;3006;50.956;7.002;2023-03-26T13:49:24;2.27;;;1.70;;
5959;SDS011;3006;50.956;7.002;2023-03-26T13:52:03;2.40;;;1.90;;
5959;SDS011;3006;50.956;7.002;2023-03-26T13:54:37;3.30;;;1.70;;
5959;SDS011;3006;50.956;7.002;2023-03-26T13:57:13;5.23;;;2.50;;
5959;SDS011;3006;50.956;7.002;2023-03-26T13:59:46;3.77;;;2.87;;
5959;SDS011;3006;50.956;7.002;2023-03-26T14:02:22;4.60;;;3.50;;
5959;SDS011;3006;50.956;7.002;2023-03-26T14:04:58;4.50;;;3.63;;
5959;SDS011;3006;50.956;7.002;2023-03-26T14:07:31;5.00;;;3.63;;
5959;SDS011;3006;50.956;7.002;2023-03-26T14:10:06;5.87;;;3.80;;
5959;SDS011;3006;50.956;7.002;2023-03-26T14:12:42;7.73;;;2.93;;
5959;SDS011;3006;50.956;7.002;2023-03-26T14:15:18;3.10;;;1.97;;
5959;SDS011;3006;50.956;7.002;2023-03-26T14:17:51;3.93;;;2.47;;
5959;SDS011;3006;50.956;7.002;2023-03-26T14:23:46;2.27;;;2.07;;
5959;SDS011;3006;50.956;7.002;2023-03-26T14:26:44;2.57;;;2.30;;
5959;SDS011;3006;50.956;7.002;2023-03-26T14:29:29;5.80;;;4.33;;
5959;SDS011;3006;50.956;7.002;2023-03-26T14:32:08;2.07;;;1.87;;
5959;SDS011;3006;50.956;7.002;2023-03-26T14:35:09;2.93;;;2.20;;
5959;SDS011;3006;50.956;7.002;2023-03-26T14:37:52;2.17;;;1.90;;
5959;SDS011;3006;50.956;7.002;2023-03-26T14:40:46;3.77;;;2.17;;
5959;SDS011;3006;50.956;7.002;2023-03-26T14:43:26;4.10;;;2.70;;
5959;SDS011;3006;50.956;7.002;2023-03-26T14:46:26;2.20;;;1.93;;
5959;SDS011;3006;50.956;7.002;2023-03-26T14:52:20;2.37;;;1.80;;
5959;SDS011;3006;50.956;7.002;2023-03-26T14:54:56;3.40;;;1.93;;
5959;SDS011;3006;50.956;7.002;2023-03-26T15:00:39;2.13;;;1.57;;
5959;SDS011;3006;50.956;7.002;2023-03-26T15:04:01;2.27;;;2.00;;
5959;SDS011;3006;50.956;7.002;2023-03-26T15:07:20;1.70;;;1.60;;
5959;SDS011;3006;50.956;7.002;2023-03-26T15:13:07;4.53;;;2.13;;
5959;SDS011;3006;50.956;7.002;2023-03-26T15:16:07;4.97;;;3.47;;
5959;SDS011;3006;50.956;7.002;2023-03-26T15:18:52;4.47;;;2.97;;
5959;SDS011;3006;50.956;7.002;2023-03-26T15:25:05;2.60;;;1.50;;
5959;SDS011;3006;50.956;7.002;2023-03-26T15:27:56;1.60;;;1.30;;
5959;SDS011;3006;50.956;7.002;2023-03-26T15:33:45;1.77;;;1.33;;
5959;SDS011;3006;50.956;7.002;2023-03-26T15:40:13;1.77;;;1.20;;
5959;SDS011;3006;50.956;7.002;2023-03-26T15:42:58;1.93;;;1.40;;
5959;SDS011;3006;50.956;7.002;2023-03-26T15:45:34;1.33;;;1.23;;
5959;SDS011;3006;50.956;7.002;2023-03-26T15:48:05;2.77;;;2.03;;
5959;SDS011;3006;50.956;7.002;2023-03-26T15:51:02;2.00;;;1.23;;
5959;SDS011;3006;50.956;7.002;2023-03-26T15:53:52;2.63;;;2.30;;
5959;SDS011;3006;50.956;7.002;2023-03-26T15:56:29;5.77;;;4.20;;
5959;SDS011;3006;50.956;7.002;2023-03-26T15:59:13;3.80;;;2.67;;
5959;SDS011;3006;50.956;7.002;2023-03-26T16:01:52;2.43;;;1.83;;
5959;SDS011;3006;50.956;7.002;2023-03-26T16:04:34;5.00;;;3.70;;
5959;SDS011;3006;50.956;7.002;2023-03-26T16:07:33;2.60;;;1.70;;
5959;SDS011;3006;50.956;7.002;2023-03-26T16:10:15;2.17;;;1.50;;
5959;SDS011;3006;50.956;7.002;2023-03-26T16:13:16;3.70;;;2.73;;
5959;SDS011;3006;50.956;7.002;2023-03-26T16:15:53;2.07;;;1.63;;
5959;SDS011;3006;50.956;7.002;2023-03-26T16:18:27;2.13;;;1.60;;
5959;SDS011;3006;50.956;7.002;2023-03-26T16:24:14;1.60;;;1.30;;
5959;SDS011;3006;50.956;7.002;2023-03-26T16:30:09;1.53;;;1.10;;
5959;SDS011;3006;50.956;7.002;2023-03-26T16:32:51;2.73;;;1.40;;
5959;SDS011;3006;50.956;7.002;2023-03-26T16:35:32;5.20;;;3.90;;
5959;SDS011;3006;50.956;7.002;2023-03-26T16:38:10;2.13;;;1.93;;
5959;SDS011;3006;50.956;7.002;2023-03-26T16:40:48;1.50;;;1.20;;
5959;SDS011;3006;50.956;7.002;2023-03-26T16:46:29;1.60;;;1.03;;
5959;SDS011;3006;50.956;7.002;2023-03-26T16:49:10;2.27;;;1.20;;
5959;SDS011;3006;50.956;7.002;2023-03-26T16:51:52;3.03;;;1.50;;
5959;SDS011;3006;50.956;7.002;2023-03-26T16:54:31;1.53;;;1.43;;
5959;SDS011;3006;50.956;7.002;2023-03-26T16:57:17;4.30;;;1.10;;
5959;SDS011;3006;50.956;7.002;2023-03-26T17:03:03;1.70;;;1.47;;
5959;SDS011;3006;50.956;7.002;2023-03-26T17:05:48;1.40;;;1.27;;
5959;SDS011;3006;50.956;7.002;2023-03-26T17:08:30;2.43;;;1.57;;
5959;SDS011;3006;50.956;7.002;2023-03-26T17:11:08;1.40;;;1.20;;
5959;SDS011;3006;50.956;7.002;2023-03-26T17:13:49;1.83;;;1.53;;
5959;SDS011;3006;50.956;7.002;2023-03-26T17:16:31;2.13;;;1.93;;
5959;SDS011;3006;50.956;7.002;2023-03-26T17:19:04;4.87;;;3.60;;
5959;SDS011;3006;50.956;7.002;2023-03-26T17:21:44;5.70;;;1.67;;
5959;SDS011;3006;50.956;7.002;2023-03-26T17:24:23;2.33;;;1.50;;